Time;durP1;ratioP1;P1;durP2;ratioP2;P2;SDS_P1;SDS_P2;PMS_P1;PMS_P2;Temp;Humidity;BMP_temperature;BMP_pressure;BME280_temperature;BME280_humidity;BME280_pressure;Samples;Min_cycle;Max_cycle;Signal;HPM_P1;HPM_P2
2022/05/17 00:00:39;;;;;;;;;;;;;;;23.36;44.10;96107.06;10347805;28;1848;-58
2022/05/17 00:05:41;;;;;;;;;;;;;;;23.37;44.39;96109.44;10349303;28;1828;-59
2022/05/17 00:10:41;;;;;;;;;;;;;;;23.37;44.26;96108.63;10344137;28;1980;-57
2022/05/17 00:15:46;;;;;;;;;;;;;;;23.36;44.28;96105.22;10337691;28;2300;-60
2022/05/17 00:20:46;;;;;;;;;;;;;;;23.36;43.94;96101.78;10310605;28;1946;-60
2022/05/17 00:25:47;;;;;;;;;;;;;;;23.36;44.19;96107.06;10319528;28;1966;-61
2022/05/17 00:30:48;;;;;;;;;;;;;;;23.35;44.12;96105.50;10319716;28;1926;-58
2022/05/17 00:35:48;;;;;;;;;;;;;;;23.36;44.20;96105.22;10342731;28;1977;-59
2022/05/17 00:40:48;;;;;;;;;;;;;;;23.36;44.31;96099.16;10355558;28;1962;-60
2022/05/17 00:45:49;;;;;;;;;;;;;;;23.36;44.14;96101.78;10352179;28;2104;-59
2022/05/17 00:50:50;;;;;;;;;;;;;;;23.36;44.08;96101.78;10351526;28;1958;-58
2022/05/17 00:55:56;;;;;;;;;;;;;;;23.35;43.94;96101.00;10354849;28;1919;-59
2022/05/17 01:00:56;;;;;;;;;;;;;;;23.36;44.15;96101.78;10325775;28;1999;-59
2022/05/17 01:05:57;;;;;;;;;;;;;;;23.35;44.08;96100.19;10333594;28;1965;-60
2022/05/17 01:10:58;;;;;;;;;;;;;;;23.35;44.03;96098.34;10340431;28;1924;-60
2022/05/17 01:15:58;;;;;;;;;;;;;;;23.35;44.00;96100.19;10332419;28;2060;-59
2022/05/17 01:21:12;;;;;;;;;;;;;;;23.33;43.72;96097.06;10342694;28;1966;-58
2022/05/17 01:26:16;;;;;;;;;;;;;;;;;;10330480;28;2012;-60
2022/05/17 01:31:17;;;;;;;;;;;;;;;23.33;43.46;96097.06;10355239;28;1898;-58
2022/05/17 01:36:21;;;;;;;;;;;;;;;23.33;43.55;96092.56;10348013;28;1977;-59
2022/05/17 01:41:21;;;;;;;;;;;;;;;23.34;43.62;96085.41;10348720;28;1907;-59
2022/05/17 01:46:22;;;;;;;;;;;;;;;23.33;43.83;96091.75;10332506;28;1933;-60
2022/05/17 01:51:23;;;;;;;;;;;;;;;23.32;43.53;96096.28;10353930;28;1882;-60
2022/05/17 01:56:24;;;;;;;;;;;;;;;23.32;43.66;96085.69;10333400;28;1910;-60
2022/05/17 02:01:25;;;;;;;;;;;;;;;23.32;43.37;96080.41;10339787;28;1967;-59
2022/05/17 02:06:25;;;;;;;;;;;;;;;23.33;43.38;96086.47;10352860;28;1939;-62
2022/05/17 02:11:25;;;;;;;;;;;;;;;23.32;43.21;96080.41;10331071;28;1954;-59
2022/05/17 02:16:26;;;;;;;;;;;;;;;23.32;43.53;96084.91;10350719;28;1957;-60
2022/05/17 02:21:26;;;;;;;;;;;;;;;23.31;43.64;96078.00;10340016;28;1850;-59
2022/05/17 02:26:26;;;;;;;;;;;;;;;23.32;43.31;96082.25;10334260;28;1985;-58
2022/05/17 02:31:26;;;;;;;;;;;;;;;23.30;43.20;96079.09;10344917;28;1941;-60
2022/05/17 02:36:29;;;;;;;;;;;;;;;23.31;43.05;96093.88;10335707;28;1931;-61
2022/05/17 02:41:29;;;;;;;;;;;;;;;23.30;43.02;96094.94;10329909;28;2203;-60
2022/05/17 02:46:30;;;;;;;;;;;;;;;23.31;43.13;96093.88;10353347;28;1850;-61
2022/05/17 02:51:30;;;;;;;;;;;;;;;23.30;43.26;96090.47;10352543;28;1952;-59
2022/05/17 02:56:32;;;;;;;;;;;;;;;23.30;43.13;96102.88;10348736;28;1906;-60
2022/05/17 03:01:32;;;;;;;;;;;;;;;23.29;43.25;96101.28;10351310;28;1876;-60
2022/05/17 03:06:33;;;;;;;;;;;;;;;23.29;43.40;96101.28;10347159;28;1793;-61
2022/05/17 03:11:33;;;;;;;;;;;;;;;23.30;43.11;96110.81;10329637;28;1985;-59
2022/05/17 03:16:35;;;;;;;;;;;;;;;23.30;43.40;96108.19;10341217;28;1957;-58
2022/05/17 03:21:35;;;;;;;;;;;;;;;23.29;43.41;96112.69;10345144;28;1876;-61
2022/05/17 03:26:35;;;;;;;;;;;;;;;23.29;43.46;96114.53;10316859;28;1990;-61
2022/05/17 03:31:36;;;;;;;;;;;;;;;23.29;43.20;96114.53;10327779;28;1907;-60
2022/05/17 03:36:37;;;;;;;;;;;;;;;23.29;43.39;96119.81;10351630;28;2091;-59
2022/05/17 03:41:38;;;;;;;;;;;;;;;23.28;43.42;96115.59;10335300;28;2081;-60
2022/05/17 03:46:38;;;;;;;;;;;;;;;23.28;43.39;96123.53;10338387;28;1930;-60
2022/05/17 03:51:38;;;;;;;;;;;;;;;23.28;43.39;96124.34;10341164;28;1941;-60
2022/05/17 03:56:39;;;;;;;;;;;;;;;23.28;43.23;96121.69;10328541;28;2233;-60
2022/05/17 04:01:39;;;;;;;;;;;;;;;23.28;43.35;96131.47;10329845;28;1928;-60
2022/05/17 04:06:40;;;;;;;;;;;;;;;23.28;43.22;96134.13;10361347;28;1924;-59
2022/05/17 04:11:41;;;;;;;;;;;;;;;23.27;43.36;96135.97;10357040;28;1947;-60
2022/05/17 04:16:52;;;;;;;;;;;;;;;23.27;43.38;96137.81;10355139;28;1935;-59
2022/05/17 04:22:12;;;;;;;;;;;;;;;23.08;43.71;96148.34;10366415;28;1963;-61
2022/05/17 04:27:13;;;;;;;;;;;;;;;22.73;44.77;96150.53;10372574;28;2104;-61
2022/05/17 04:32:14;;;;;;;;;;;;;;;22.44;45.62;96147.81;10377910;28;1959;-61
2022/05/17 04:37:14;;;;;;;;;;;;;;;22.18;45.66;96149.84;10368881;28;1996;-60
2022/05/17 04:42:15;;;;;;;;;;;;;;;22.02;46.38;96151.00;10359359;28;1937;-61
2022/05/17 04:47:15;;;;;;;;;;;;;;;21.92;46.38;96158.97;10352766;28;1968;-59
2022/05/17 04:52:15;;;;;;;;;;;;;;;22.07;46.54;96161.50;10338201;28;1992;-60
2022/05/17 04:57:15;;;;;;;;;;;;;;;22.31;45.94;96159.78;10338498;28;1932;-59
2022/05/17 05:02:16;;;;;;;;;;;;;;;22.49;45.67;96166.25;10337403;28;2218;-60
2022/05/17 05:07:16;;;;;;;;;;;;;;;22.66;45.21;96177.28;10342993;28;1964;-59
2022/05/17 05:12:17;;;;;;;;;;;;;;;22.78;44.70;96182.97;10349016;28;1972;-60
2022/05/17 05:17:17;;;;;;;;;;;;;;;22.84;44.37;96176.59;10341110;28;1959;-60
2022/05/17 05:22:17;;;;;;;;;;;;;;;22.91;43.85;96182.34;10337147;28;1980;-57
2022/05/17 05:27:18;;;;;;;;;;;;;;;22.98;43.55;96184.69;10329467;28;2017;-57
2022/05/17 05:32:18;;;;;;;;;;;;;;;23.01;43.91;96194.69;10357968;28;2034;-57
2022/05/17 05:37:19;;;;;;;;;;;;;;;23.04;43.54;96199.44;10358797;28;2006;-57
2022/05/17 05:42:20;;;;;;;;;;;;;;;23.06;43.47;96197.28;10345188;28;1947;-59
2022/05/17 05:47:20;;;;;;;;;;;;;;;23.07;43.99;96207.59;10356787;28;1997;-58
2022/05/17 05:52:21;;;;;;;;;;;;;;;23.10;44.00;96208.91;10354984;28;1922;-59
2022/05/17 05:57:21;;;;;;;;;;;;;;;23.11;43.86;96210.47;10357640;28;2021;-60
2022/05/17 06:02:21;;;;;;;;;;;;;;;23.11;44.11;96211.25;10353162;28;1888;-58
2022/05/17 06:07:22;;;;;;;;;;;;;;;23.12;43.82;96207.53;10354810;28;1919;-60
2022/05/17 06:12:22;;;;;;;;;;;;;;;23.14;43.83;96207.25;10350063;28;1912;-60
2022/05/17 06:17:27;;;;;;;;;;;;;;;23.14;43.88;96205.38;10353145;28;1972;-59
2022/05/17 06:22:28;;;;;;;;;;;;;;;23.15;43.83;96211.47;10347329;28;1905;-60
2022/05/17 06:27:28;;;;;;;;;;;;;;;23.15;44.13;96211.47;10324698;28;1841;-57
2022/05/17 06:32:29;;;;;;;;;;;;;;;23.16;43.82;96207.78;10337813;28;1794;-59
2022/05/17 06:37:29;;;;;;;;;;;;;;;23.17;43.91;96209.34;10353437;28;1910;-59
2022/05/17 06:42:30;;;;;;;;;;;;;;;23.17;44.16;96209.34;10346892;28;1840;-59
2022/05/17 06:47:30;;;;;;;;;;;;;;;23.18;44.20;96205.63;10353020;28;1827;-59
2022/05/17 06:52:31;;;;;;;;;;;;;;;23.18;44.14;96208.28;10353129;28;1773;-60
2022/05/17 06:57:31;;;;;;;;;;;;;;;23.19;43.94;96217.78;10354066;28;1963;-59
2022/05/17 07:02:32;;;;;;;;;;;;;;;23.19;44.01;96212.50;10350069;28;1800;-59
2022/05/17 07:07:33;;;;;;;;;;;;;;;23.19;44.15;96209.84;10326384;28;1843;-59
2022/05/17 07:17:52;;;;;;;;;;;;;;;23.21;44.00;96218.28;10349611;28;1931;-59
2022/05/17 07:22:53;;;;;;;;;;;;;;;23.21;44.23;96215.66;10330204;28;2059;-59
2022/05/17 07:27:54;;;;;;;;;;;;;;;23.20;44.08;96216.72;10347040;28;1941;-60
2022/05/17 07:32:55;;;;;;;;;;;;;;;23.21;44.04;96218.28;10346497;28;1915;-56
2022/05/17 07:37:56;;;;;;;;;;;;;;;23.20;44.14;96214.09;10337986;28;1981;-59
2022/05/17 07:42:57;;;;;;;;;;;;;;;23.22;44.19;96215.38;10333232;28;1804;-61
2022/05/17 07:47:57;;;;;;;;;;;;;;;23.22;44.16;96219.88;10357163;28;1905;-59
2022/05/17 07:53:03;;;;;;;;;;;;;;;23.21;44.06;96219.09;10342138;28;1951;-59
2022/05/17 07:58:03;;;;;;;;;;;;;;;23.22;44.19;96211.94;10340836;28;1973;-59
2022/05/17 08:03:04;;;;;;;;;;;;;;;23.22;44.00;96215.38;10357153;28;1939;-59
2022/05/17 08:08:05;;;;;;;;;;;;;;;23.23;44.34;96213.50;10336202;28;1969;-58
2022/05/17 08:13:05;;;;;;;;;;;;;;;23.24;44.38;96212.47;10338695;28;1889;-59
2022/05/17 08:18:05;;;;;;;;;;;;;;;23.24;44.28;96209.81;10343631;28;1910;-60
2022/05/17 08:23:06;;;;;;;;;;;;;;;23.24;44.24;96204.53;10332442;28;1915;-60
2022/05/17 08:28:07;;;;;;;;;;;;;;;23.23;44.18;96209.03;10344272;28;1916;-58
2022/05/17 08:33:19;;;;;;;;;;;;;;;23.24;44.12;96207.16;10326225;28;2174;-58
2022/05/17 08:38:21;;;;;;;;;;;;;;;23.24;44.01;96210.59;10332953;28;1906;-59
2022/05/17 08:43:24;;;;;;;;;;;;;;;23.25;44.26;96208.72;10351210;28;2028;-58
2022/05/17 08:48:25;;;;;;;;;;;;;;;23.26;44.23;96207.69;10313617;28;1889;-59
2022/05/17 08:53:25;;;;;;;;;;;;;;;23.25;44.24;96206.09;10356584;28;1848;-58
2022/05/17 08:58:30;;;;;;;;;;;;;;;23.25;44.24;96206.09;10355846;28;1903;-58
2022/05/17 09:03:33;;;;;;;;;;;;;;;23.26;44.30;96207.69;10341131;28;1934;-59
2022/05/17 09:08:44;;;;;;;;;;;;;;;23.26;44.18;96207.69;10338995;28;1829;-58
2022/05/17 09:13:55;;;;;;;;;;;;;;;23.26;44.20;96208.47;10340059;28;1805;-58
2022/05/17 09:18:56;;;;;;;;;;;;;;;23.26;44.04;96203.19;10324495;28;1806;-58
2022/05/17 09:23:57;;;;;;;;;;;;;;;23.26;44.20;96202.38;10322039;28;2084;-58
2022/05/17 09:29:04;;;;;;;;;;;;;;;23.25;44.29;96195.50;10357929;28;1835;-58
2022/05/17 09:34:06;;;;;;;;;;;;;;;23.24;44.20;96200.03;10352168;28;2019;-57
2022/05/17 09:39:06;;;;;;;;;;;;;;;23.25;44.77;96200.78;10338309;28;1836;-59
2022/05/17 09:44:10;;;;;;;;;;;;;;;23.26;44.38;96207.69;10334956;28;1893;-58
2022/05/17 09:54:49;;;;;;;;;;;;;;;23.23;44.73;96198.44;10327118;28;1917;-56
2022/05/17 10:00:12;;;;;;;;;;;;;;;23.25;44.83;96195.50;10330725;28;1765;-60
2022/05/17 10:05:17;;;;;;;;;;;;;;;23.26;44.95;96197.09;10355835;28;1788;-59
2022/05/17 10:10:21;;;;;;;;;;;;;;;23.26;44.77;96197.09;10338985;28;1808;-59
2022/05/17 10:15:21;;;;;;;;;;;;;;;23.27;44.73;96193.38;10353626;28;1906;-59
2022/05/17 10:20:23;;;;;;;;;;;;;;;23.27;44.87;96193.38;10338656;28;1764;-59
2022/05/17 10:25:25;;;;;;;;;;;;;;;23.26;44.64;96184.66;10336998;28;1852;-59
2022/05/17 10:30:46;;;;;;;;;;;;;;;23.28;44.75;96184.38;10323398;28;1808;-60
2022/05/17 10:35:47;;;;;;;;;;;;;;;23.27;45.10;96180.16;10338249;28;2051;-58
2022/05/17 10:40:50;;;;;;;;;;;;;;;23.30;44.70;96180.41;10334197;28;1805;-58
2022/05/17 10:45:56;;;;;;;;;;;;;;;23.30;44.59;96176.94;10349210;28;1823;-61
2022/05/17 10:50:59;;;;;;;;;;;;;;;23.29;45.01;96170.88;10325021;28;1824;-55
2022/05/17 10:56:10;;;;;;;;;;;;;;;23.30;45.07;96171.66;10342051;28;1906;-57
2022/05/17 11:01:21;;;;;;;;;;;;;;;23.28;45.06;96168.50;10336729;28;1832;-57
2022/05/17 11:06:40;;;;;;;;;;;;;;;23.30;44.71;96171.66;10352569;28;1852;-57
2022/05/17 11:11:40;;;;;;;;;;;;;;;23.31;44.63;96173.22;10348127;28;1867;-58
2022/05/17 11:16:59;;;;;;;;;;;;;;;23.31;45.07;96165.28;10349520;28;1914;-58
2022/05/17 11:22:01;;;;;;;;;;;;;;;23.30;45.00;96169.81;10344611;28;1810;-59
2022/05/17 11:27:08;;;;;;;;;;;;;;;23.31;45.07;96157.34;10330839;28;1794;-59
2022/05/17 11:32:21;;;;;;;;;;;;;;;23.30;44.81;96161.88;10349206;28;1877;-58
2022/05/17 11:37:33;;;;;;;;;;;;;;;23.31;44.85;96154.72;10348763;28;2110;-60
2022/05/17 11:42:34;;;;;;;;;;;;;;;23.31;45.00;96158.16;10334956;28;2090;-59
2022/05/17 11:47:38;;;;;;;;;;;;;;;23.35;45.13;96161.03;10331944;28;1797;-58
2022/05/17 11:52:38;;;;;;;;;;;;;;;23.35;44.97;96158.41;10324829;28;2044;-59
2022/05/17 11:57:38;;;;;;;;;;;;;;;23.35;44.97;96150.47;10336531;28;1910;-57
2022/05/17 12:02:48;;;;;;;;;;;;;;;23.34;44.92;96148.91;10327384;28;2248;-57
2022/05/17 12:07:48;;;;;;;;;;;;;;;23.35;45.11;96140.69;10346439;28;2194;-60
2022/05/17 12:12:56;;;;;;;;;;;;;;;23.35;45.10;96137.22;10331103;28;2226;-59
2022/05/17 12:17:59;;;;;;;;;;;;;;;23.35;45.10;96135.38;10336067;28;1914;-59
2022/05/17 12:23:12;;;;;;;;;;;;;;;23.36;44.97;96139.63;10309978;28;1943;-60
2022/05/17 12:28:26;;;;;;;;;;;;;;;23.37;45.12;96135.09;10347619;28;2236;-60
2022/05/17 12:33:29;;;;;;;;;;;;;;;23.37;44.87;96127.94;10317582;28;1890;-59
2022/05/17 12:43:48;;;;;;;;;;;;;;;23.38;44.79;96129.53;10336688;28;1814;-59
2022/05/17 12:48:50;;;;;;;;;;;;;;;23.40;44.81;96118.66;10354322;28;1986;-59
2022/05/17 12:53:51;;;;;;;;;;;;;;;23.40;44.83;96121.31;10352038;28;1887;-58
2022/05/17 12:58:51;;;;;;;;;;;;;;;23.39;45.09;96117.88;10339656;28;1971;-57
2022/05/17 13:03:55;;;;;;;;;;;;;;;23.40;44.85;96103.59;10355001;28;1867;-58
2022/05/17 13:08:56;;;;;;;;;;;;;;;23.42;44.73;96109.38;10346728;28;1817;-56
2022/05/17 13:13:58;;;;;;;;;;;;;;;23.41;44.73;96110.44;10344947;28;1910;-58
2022/05/17 13:19:00;;;;;;;;;;;;;;;23.42;44.95;96111.25;10356675;28;1863;-59
2022/05/17 13:24:09;;;;;;;;;;;;;;;23.42;45.05;96113.88;10355627;28;1876;-60
2022/05/17 13:29:24;;;;;;;;;;;;;;;23.43;45.03;96105.66;10340489;28;1918;-60
2022/05/17 13:34:29;;;;;;;;;;;;;;;23.42;44.84;96095.38;10335842;28;1906;-60
2022/05/17 13:39:29;;;;;;;;;;;;;;;23.42;45.04;96090.88;10338325;28;1951;-60
2022/05/17 13:44:29;;;;;;;;;;;;;;;23.43;44.84;96087.13;10337590;28;1940;-59
2022/05/17 13:49:37;;;;;;;;;;;;;;;23.43;44.87;96086.38;10355115;28;1884;-59
2022/05/17 13:54:40;;;;;;;;;;;;;;;23.44;45.01;96082.63;10333169;28;2004;-59
2022/05/17 13:59:49;;;;;;;;;;;;;;;23.43;44.97;96081.09;10349885;28;1837;-57
2022/05/17 14:04:50;;;;;;;;;;;;;;;23.43;45.04;96081.09;10353455;28;1895;-58
2022/05/17 14:15:26;;;;;;;;;;;;;;;23.42;45.06;96059.13;10326431;28;1975;-59
2022/05/17 14:20:26;;;;;;;;;;;;;;;23.43;45.08;96065.22;10362579;28;1908;-59
2022/05/17 14:25:27;;;;;;;;;;;;;;;23.44;44.96;96050.91;10325418;28;1844;-58
2022/05/17 14:30:27;;;;;;;;;;;;;;;23.43;45.04;96055.38;10339024;28;1900;-57
2022/05/17 14:35:30;;;;;;;;;;;;;;;23.44;44.97;96054.34;10321493;28;1973;-58
2022/05/17 14:40:30;;;;;;;;;;;;;;;23.43;44.93;96034.22;10348901;28;1824;-59
2022/05/17 14:45:31;;;;;;;;;;;;;;;23.44;45.04;96042.97;10339544;28;1649;-58
2022/05/17 14:50:31;;;;;;;;;;;;;;;23.42;44.87;96040.59;10320185;28;2010;-57
2022/05/17 14:55:31;;;;;;;;;;;;;;;23.42;45.12;96039.81;10347614;28;2229;-60
2022/05/17 15:00:32;;;;;;;;;;;;;;;23.42;44.92;96034.53;10326772;28;2178;-60
2022/05/17 15:05:34;;;;;;;;;;;;;;;23.41;44.88;96030.31;10325953;28;1875;-58
2022/05/17 15:10:35;;;;;;;;;;;;;;;23.41;45.04;96025.78;10338105;28;1867;-57
2022/05/17 15:15:35;;;;;;;;;;;;;;;23.42;44.81;96021.28;10348294;28;1993;-57
2022/05/17 15:20:36;;;;;;;;;;;;;;;23.41;44.95;96017.09;10320349;28;1898;-57
2022/05/17 15:25:36;;;;;;;;;;;;;;;23.42;45.00;96023.94;10325788;28;1798;-59
2022/05/17 15:30:37;;;;;;;;;;;;;;;23.42;44.67;96016.00;10328621;28;1899;-59
2022/05/17 15:35:39;;;;;;;;;;;;;;;23.40;44.87;96013.66;10316249;28;1973;-59
2022/05/17 15:40:40;;;;;;;;;;;;;;;23.41;44.90;96009.91;10330154;28;1823;-58
2022/05/17 15:45:40;;;;;;;;;;;;;;;23.40;45.17;96011.00;10348185;28;1796;-58
2022/05/17 15:56:02;;;;;;;;;;;;;;;23.48;44.26;96012.22;10334455;28;2044;-58
2022/05/17 16:01:03;;;;;;;;;;;;;;;23.45;44.91;96004.84;10340434;28;2024;-58
2022/05/17 16:06:04;;;;;;;;;;;;;;;23.43;45.12;95993.78;10335369;28;1951;-58
2022/05/17 16:16:23;;;;;;;;;;;;;;;23.42;44.66;95989.53;10338143;28;1979;-58
2022/05/17 16:21:24;;;;;;;;;;;;;;;23.41;44.84;95987.97;10357776;28;1824;-57
2022/05/17 16:26:24;;;;;;;;;;;;;;;23.41;44.77;95980.81;10317942;28;2090;-59
2022/05/17 16:31:25;;;;;;;;;;;;;;;23.42;44.70;95976.31;10334237;28;1842;-58
2022/05/17 16:36:26;;;;;;;;;;;;;;;23.40;44.66;95976.59;10322871;28;1978;-59
2022/05/17 16:41:26;;;;;;;;;;;;;;;23.40;44.86;95970.53;10337409;28;1830;-59
2022/05/17 16:46:28;;;;;;;;;;;;;;;23.40;44.68;95973.16;10354892;28;1916;-57
2022/05/17 16:51:30;;;;;;;;;;;;;;;23.42;44.67;95978.97;10334598;28;1840;-59
2022/05/17 16:56:30;;;;;;;;;;;;;;;23.45;44.85;95984.47;10353607;28;1989;-59
2022/05/17 17:01:30;;;;;;;;;;;;;;;23.46;44.90;95979.97;10365029;28;1867;-61
2022/05/17 17:06:34;;;;;;;;;;;;;;;23.48;44.91;95975.16;10364565;28;1828;-61
2022/05/17 17:11:35;;;;;;;;;;;;;;;23.47;44.63;95978.91;10335764;28;2108;-63
2022/05/17 17:16:36;;;;;;;;;;;;;;;23.49;44.12;95981.25;10359171;28;1988;-62
2022/05/17 17:21:36;;;;;;;;;;;;;;;23.49;43.79;95984.69;10339172;28;1868;-60
2022/05/17 17:26:36;;;;;;;;;;;;;;;23.47;43.97;95996.63;10328129;28;1826;-60
2022/05/17 17:31:36;;;;;;;;;;;;;;;23.46;43.90;95990.53;10347176;28;1834;-61
2022/05/17 17:41:57;;;;;;;;;;;;;;;23.35;40.91;95992.53;10359490;28;1761;-62
2022/05/17 17:46:59;;;;;;;;;;;;;;;23.27;39.93;95995.00;10335438;28;1964;-61
2022/05/17 17:52:00;;;;;;;;;;;;;;;23.25;41.17;96000.56;10335213;28;1837;-61
2022/05/17 17:57:00;;;;;;;;;;;;;;;23.20;39.00;96007.81;10330488;28;1971;-61
2022/05/17 18:02:01;;;;;;;;;;;;;;;23.11;38.46;96005.00;10344967;28;1870;-60
2022/05/17 18:07:01;;;;;;;;;;;;;;;23.07;38.57;96019.06;10352413;28;1823;-61
2022/05/17 18:12:02;;;;;;;;;;;;;;;23.02;38.13;96029.72;10352491;28;1745;-60
2022/05/17 18:17:03;;;;;;;;;;;;;;;23.00;37.88;96029.19;10351556;28;1898;-62
2022/05/17 18:22:03;;;;;;;;;;;;;;;23.05;38.66;96023.84;10355030;28;1768;-61
2022/05/17 18:27:05;;;;;;;;;;;;;;;23.07;39.21;96027.00;10316618;28;1878;-59
2022/05/17 18:32:10;;;;;;;;;;;;;;;23.08;38.65;96031.22;10332732;28;2030;-62
2022/05/17 18:37:10;;;;;;;;;;;;;;;23.07;38.73;96045.50;10336525;28;1981;-59
2022/05/17 18:42:10;;;;;;;;;;;;;;;23.09;38.84;96043.34;10352162;28;1843;-63
2022/05/17 18:47:11;;;;;;;;;;;;;;;23.09;38.76;96044.16;10347498;28;1800;-60
2022/05/17 18:52:20;;;;;;;;;;;;;;;23.15;39.86;96058.88;10327044;28;1837;-63
2022/05/17 18:57:21;;;;;;;;;;;;;;;23.19;40.09;96059.09;10339605;28;1922;-62
2022/05/17 19:02:25;;;;;;;;;;;;;;;23.21;40.41;96065.69;10348663;28;1793;-62
2022/05/17 19:18:06;;;;;;;;;;;;;;;23.30;40.71;96060.56;10353611;28;1906;-62
2022/05/17 19:23:07;;;;;;;;;;;;;;;23.32;40.74;96069.84;10333058;28;2742;-63
2022/05/17 19:28:07;;;;;;;;;;;;;;;23.32;40.98;96074.31;10356790;28;1841;-63
2022/05/17 19:33:08;;;;;;;;;;;;;;;23.32;41.00;96079.63;10342008;28;1833;-63
2022/05/17 19:43:29;;;;;;;;;;;;;;;23.30;40.89;96087.03;10348173;28;1814;-63
2022/05/17 19:48:29;;;;;;;;;;;;;;;23.30;40.73;96098.41;10344744;28;1767;-64
2022/05/17 19:53:30;;;;;;;;;;;;;;;23.30;40.90;96108.19;10357369;28;1813;-62
2022/05/17 19:58:30;;;;;;;;;;;;;;;23.31;40.93;96104.44;10358613;28;2013;-62
2022/05/17 20:03:30;;;;;;;;;;;;;;;23.30;41.14;96110.81;10363282;28;1831;-65
2022/05/17 20:08:31;;;;;;;;;;;;;;;23.30;41.23;96108.19;10361766;28;1840;-63
2022/05/17 20:13:31;;;;;;;;;;;;;;;23.30;41.23;96110.81;10365682;28;1851;-63
2022/05/17 20:18:32;;;;;;;;;;;;;;;23.29;41.29;96103.94;10364742;28;1977;-64
2022/05/17 20:23:33;;;;;;;;;;;;;;;23.29;40.96;96101.28;10358008;28;1875;-64
2022/05/17 20:28:34;;;;;;;;;;;;;;;23.28;41.24;96105.03;10346788;28;1873;-63
2022/05/17 20:33:35;;;;;;;;;;;;;;;23.29;41.38;96106.59;10345204;28;1848;-65
2022/05/17 20:38:35;;;;;;;;;;;;;;;23.27;41.29;96103.44;10340671;28;1914;-64
2022/05/17 20:43:36;;;;;;;;;;;;;;;23.27;41.09;96114.03;10340152;28;1782;-65
2022/05/17 20:48:36;;;;;;;;;;;;;;;23.27;41.38;96111.38;10329818;28;1915;-64
2022/05/17 20:53:37;;;;;;;;;;;;;;;23.26;41.38;96107.16;10331298;28;2001;-63
2022/05/17 20:58:38;;;;;;;;;;;;;;;23.26;41.27;96107.16;10334420;28;1966;-65
2022/05/17 21:03:39;;;;;;;;;;;;;;;23.25;41.16;96109.03;10340654;28;2049;-64
2022/05/17 21:08:39;;;;;;;;;;;;;;;23.25;41.26;96110.88;10346875;28;1707;-65
2022/05/17 21:13:40;;;;;;;;;;;;;;;23.25;41.40;96105.59;10345397;28;1754;-63
2022/05/17 21:18:40;;;;;;;;;;;;;;;23.25;41.13;96113.50;10357264;28;1977;-63
2022/05/17 21:23:40;;;;;;;;;;;;;;;23.22;41.18;96104.31;10349353;28;1871;-64
2022/05/17 21:28:42;;;;;;;;;;;;;;;23.23;41.32;96107.72;10353784;28;1757;-63
2022/05/17 21:33:42;;;;;;;;;;;;;;;23.22;41.38;96111.44;10347372;28;1776;-64
2022/05/17 21:38:43;;;;;;;;;;;;;;;23.22;41.42;96111.44;10332057;28;2005;-64
2022/05/17 21:43:44;;;;;;;;;;;;;;;23.21;41.38;96123.88;10335689;28;1785;-63
2022/05/17 21:48:45;;;;;;;;;;;;;;;23.20;41.31;96129.47;10332295;28;1825;-64
2022/05/17 21:53:45;;;;;;;;;;;;;;;23.20;41.27;96129.47;10328792;28;1855;-64
2022/05/17 21:58:45;;;;;;;;;;;;;;;23.20;41.39;96127.59;10342403;28;2028;-64
2022/05/17 22:03:46;;;;;;;;;;;;;;;23.20;41.29;96134.75;10333580;28;1855;-64
2022/05/17 22:08:47;;;;;;;;;;;;;;;23.18;41.36;96136.88;10336960;28;1733;-64
2022/05/17 22:13:47;;;;;;;;;;;;;;;23.18;41.33;96148.25;10354117;28;1812;-63
2022/05/17 22:18:48;;;;;;;;;;;;;;;23.16;41.45;96145.06;10323655;28;1969;-65
2022/05/17 22:23:49;;;;;;;;;;;;;;;23.16;41.24;96144.31;10333296;28;2098;-64
2022/05/17 22:28:52;;;;;;;;;;;;;;;23.16;41.30;96155.66;10356615;28;1832;-64
2022/05/17 22:33:52;;;;;;;;;;;;;;;23.15;41.26;96159.38;10351739;28;1831;-64
2022/05/17 22:38:55;;;;;;;;;;;;;;;23.14;41.30;96163.06;10352440;28;1914;-64
2022/05/17 22:43:56;;;;;;;;;;;;;;;23.14;41.27;96152.50;10338673;28;1901;-62
2022/05/17 22:48:57;;;;;;;;;;;;;;;23.12;41.37;96151.22;10336651;28;1738;-64
2022/05/17 22:53:58;;;;;;;;;;;;;;;23.12;41.39;96152.00;10333865;28;1785;-63
2022/05/17 22:58:58;;;;;;;;;;;;;;;23.12;41.31;96148.59;10332013;28;1911;-65
2022/05/17 23:03:59;;;;;;;;;;;;;;;23.12;41.29;96143.28;10353246;28;1875;-63
2022/05/17 23:09:00;;;;;;;;;;;;;;;23.10;41.28;96148.06;10352527;28;1800;-63
2022/05/17 23:14:00;;;;;;;;;;;;;;;23.08;41.49;96144.91;10349750;28;1805;-63
2022/05/17 23:19:01;;;;;;;;;;;;;;;23.07;41.61;96151.25;10354682;28;1988;-63
2022/05/17 23:24:01;;;;;;;;;;;;;;;23.06;41.64;96160.28;10350004;28;1819;-63
2022/05/17 23:29:02;;;;;;;;;;;;;;;23.06;41.35;96160.28;10351984;28;1753;-63
2022/05/17 23:34:02;;;;;;;;;;;;;;;23.05;41.65;96166.63;10346475;28;1725;-65
2022/05/17 23:39:05;;;;;;;;;;;;;;;23.05;41.41;96162.13;10349839;28;1976;-64
2022/05/17 23:44:05;;;;;;;;;;;;;;;23.02;41.44;96164.53;10337365;28;1851;-63
2022/05/17 23:49:06;;;;;;;;;;;;;;;23.00;41.47;96175.38;10338383;28;1793;-65
2022/05/17 23:54:07;;;;;;;;;;;;;;;23.02;41.44;96177.75;10348774;28;1899;-63
2022/05/17 23:59:07;;;;;;;;;;;;;;;23.00;41.29;96178.03;10350870;28;1921;-64
